Check out our new PWSWeather beta!
PWSweather.com
Personal Weather Stations
Station Observations
KNCGREEN1000
Bell Orchard Drive, Greensboro, NC 27455

Bell Orchard DriveGreensboro, NC 27455

Lat: 36.132, Lon: -79.8

Elevation: 876

Station Type: Acurite Atlas

Http://www.gilhutcheson.com

High Low Average
Temperature 47.5°F8.6°C 30.4°F-0.9°C 36.8°F2.7°C
Dew Point 29.1°F-1.6°C 23.7°F-4.6°C 26.5°F-3.1°C
Winds 4.0 mph 6.4 kmh Calm Calm 1.0 mph SE1.6 kmh SE
Wind Gusts -- -- --
Humidity 85% 47% 67%
Pressure 30.65 in1037.9 mb 30.50 in1032.8 mb -
Precipitation 0.00 in0.0 mm - -
Hour Temp Dew Point Humidity Winds Wind Gusts Pressure Precip Precip Rate Daily Precip Total
12:03 AM 35.4°F1.9°C 26.1°F-3.3°C 69% 1.0 mph E1.6 kmh E -- 30.65 in1037.9 mb 0.00 in0.0 mm 0.00 in0.0 mm 0.00 in0.0 mm
12:07 AM 35.4°F1.9°C 26.1°F-3.3°C 69% 2.0 mph ENE3.2 kmh ENE -- 30.65 in1037.9 mb 0.00 in0.0 mm 0.00 in0.0 mm 0.00 in0.0 mm
12:12 AM 35.2°F1.8°C 26.0°F-3.3°C 69% Calm Calm -- 30.65 in1037.9 mb 0.00 in0.0 mm 0.00 in0.0 mm 0.00 in0.0 mm
12:17 AM 35.1°F1.7°C 25.8°F-3.4°C 69% 1.0 mph ESE1.6 kmh ESE -- 30.65 in1037.9 mb 0.00 in0.0 mm 0.00 in0.0 mm 0.00 in0.0 mm
12:23 AM 35.2°F1.8°C 26.3°F-3.2°C 70% Calm Calm -- 30.65 in1037.9 mb 0.00 in0.0 mm 0.00 in0.0 mm 0.00 in0.0 mm
12:27 AM 35.2°F1.8°C 26.3°F-3.2°C 70% Calm Calm -- 30.65 in1037.9 mb 0.00 in0.0 mm 0.00 in0.0 mm 0.00 in0.0 mm
12:32 AM 35.2°F1.8°C 26.3°F-3.2°C 70% 1.0 mph E1.6 kmh E -- 30.64 in1037.6 mb 0.00 in0.0 mm 0.00 in0.0 mm 0.00 in0.0 mm
12:38 AM 35.2°F1.8°C 27.0°F-2.8°C 72% Calm Calm -- 30.64 in1037.6 mb 0.00 in0.0 mm 0.00 in0.0 mm 0.00 in0.0 mm
12:43 AM 35.3°F1.8°C 27.0°F-2.8°C 72% Calm Calm -- 30.63 in1037.3 mb 0.00 in0.0 mm 0.00 in0.0 mm 0.00 in0.0 mm
12:47 AM 35.3°F1.8°C 27.0°F-2.8°C 72% 1.0 mph E1.6 kmh E -- 30.63 in1037.3 mb 0.00 in0.0 mm 0.00 in0.0 mm 0.00 in0.0 mm
12:53 AM 35.4°F1.9°C 27.2°F-2.7°C 72% 1.0 mph ENE1.6 kmh ENE -- 30.63 in1037.3 mb 0.00 in0.0 mm 0.00 in0.0 mm 0.00 in0.0 mm
12:57 AM 35.4°F1.9°C 27.2°F-2.7°C 72% 1.0 mph ESE1.6 kmh ESE -- 30.63 in1037.3 mb 0.00 in0.0 mm 0.00 in0.0 mm 0.00 in0.0 mm
01:03 AM 35.4°F1.9°C 27.2°F-2.7°C 72% 1.0 mph NE1.6 kmh NE -- 30.63 in1037.3 mb 0.00 in0.0 mm 0.00 in0.0 mm 0.00 in0.0 mm
01:07 AM 35.3°F1.8°C 26.7°F-2.9°C 71% Calm Calm -- 30.63 in1037.3 mb 0.00 in0.0 mm 0.00 in0.0 mm 0.00 in0.0 mm
01:12 AM 35.2°F1.8°C 26.3°F-3.2°C 70% Calm Calm -- 30.64 in1037.6 mb 0.00 in0.0 mm 0.00 in0.0 mm 0.00 in0.0 mm
01:18 AM 35.1°F1.7°C 26.8°F-2.9°C 72% 2.0 mph ENE3.2 kmh ENE -- 30.64 in1037.6 mb 0.00 in0.0 mm 0.00 in0.0 mm 0.00 in0.0 mm
01:22 AM 35.1°F1.7°C 27.5°F-2.5°C 74% 1.0 mph N1.6 kmh N -- 30.63 in1037.3 mb 0.00 in0.0 mm 0.00 in0.0 mm 0.00 in0.0 mm
01:27 AM 34.8°F1.6°C 27.0°F-2.8°C 73% 1.0 mph SE1.6 kmh SE -- 30.63 in1037.3 mb 0.00 in0.0 mm 0.00 in0.0 mm 0.00 in0.0 mm
01:33 AM 34.8°F1.6°C 27.3°F-2.6°C 74% 2.0 mph E3.2 kmh E -- 30.63 in1037.3 mb 0.00 in0.0 mm 0.00 in0.0 mm 0.00 in0.0 mm
01:37 AM 34.6°F1.4°C 27.0°F-2.8°C 74% 1.0 mph E1.6 kmh E -- 30.63 in1037.3 mb 0.00 in0.0 mm 0.00 in0.0 mm 0.00 in0.0 mm
01:42 AM 34.7°F1.5°C 27.2°F-2.7°C 74% 2.0 mph E3.2 kmh E -- 30.63 in1037.3 mb 0.00 in0.0 mm 0.00 in0.0 mm 0.00 in0.0 mm
01:47 AM 34.8°F1.6°C 27.0°F-2.8°C 73% 1.0 mph ESE1.6 kmh ESE -- 30.63 in1037.3 mb 0.00 in0.0 mm 0.00 in0.0 mm 0.00 in0.0 mm
01:53 AM 35.0°F1.7°C 27.2°F-2.7°C 73% 3.0 mph NNE4.8 kmh NNE -- 30.62 in1036.9 mb 0.00 in0.0 mm 0.00 in0.0 mm 0.00 in0.0 mm
01:58 AM 35.2°F1.8°C 27.4°F-2.6°C 73% 2.0 mph N3.2 kmh N -- 30.63 in1037.3 mb 0.00 in0.0 mm 0.00 in0.0 mm 0.00 in0.0 mm
02:02 AM 35.4°F1.9°C 27.5°F-2.5°C 73% 1.0 mph E1.6 kmh E -- 30.62 in1036.9 mb 0.00 in0.0 mm 0.00 in0.0 mm 0.00 in0.0 mm
02:07 AM 35.2°F1.8°C 27.0°F-2.8°C 72% 2.0 mph NE3.2 kmh NE -- 30.62 in1036.9 mb 0.00 in0.0 mm 0.00 in0.0 mm 0.00 in0.0 mm
02:13 AM 35.3°F1.8°C 26.7°F-2.9°C 71% 3.0 mph ESE4.8 kmh ESE -- 30.62 in1036.9 mb 0.00 in0.0 mm 0.00 in0.0 mm 0.00 in0.0 mm
02:18 AM 35.2°F1.8°C 26.0°F-3.3°C 69% 1.0 mph ESE1.6 kmh ESE -- 30.62 in1036.9 mb 0.00 in0.0 mm 0.00 in0.0 mm 0.00 in0.0 mm
02:22 AM 35.1°F1.7°C 25.4°F-3.7°C 68% 2.0 mph E3.2 kmh E -- 30.62 in1036.9 mb 0.00 in0.0 mm 0.00 in0.0 mm 0.00 in0.0 mm
02:27 AM 35.2°F1.8°C 26.0°F-3.3°C 69% 2.0 mph NE3.2 kmh NE -- 30.62 in1036.9 mb 0.00 in0.0 mm 0.00 in0.0 mm 0.00 in0.0 mm
02:33 AM 35.0°F1.7°C 25.8°F-3.4°C 69% 2.0 mph N3.2 kmh N -- 30.62 in1036.9 mb 0.00 in0.0 mm 0.00 in0.0 mm 0.00 in0.0 mm
02:38 AM 35.0°F1.7°C 25.8°F-3.4°C 69% 1.0 mph E1.6 kmh E -- 30.63 in1037.3 mb 0.00 in0.0 mm 0.00 in0.0 mm 0.00 in0.0 mm
02:42 AM 35.0°F1.7°C 26.1°F-3.3°C 70% 2.0 mph NE3.2 kmh NE -- 30.63 in1037.3 mb 0.00 in0.0 mm 0.00 in0.0 mm 0.00 in0.0 mm
02:48 AM 35.0°F1.7°C 25.8°F-3.4°C 69% Calm Calm -- 30.64 in1037.6 mb 0.00 in0.0 mm 0.00 in0.0 mm 0.00 in0.0 mm
02:52 AM 35.0°F1.7°C 25.4°F-3.7°C 68% 2.0 mph E3.2 kmh E -- 30.64 in1037.6 mb 0.00 in0.0 mm 0.00 in0.0 mm 0.00 in0.0 mm
02:58 AM 35.0°F1.7°C 25.4°F-3.7°C 68% 2.0 mph ESE3.2 kmh ESE -- 30.64 in1037.6 mb 0.00 in0.0 mm 0.00 in0.0 mm 0.00 in0.0 mm
03:02 AM 34.9°F1.6°C 25.3°F-3.7°C 68% Calm Calm -- 30.63 in1037.3 mb 0.00 in0.0 mm 0.00 in0.0 mm 0.00 in0.0 mm
03:07 AM 34.8°F1.6°C 25.3°F-3.7°C 68% Calm Calm -- 30.63 in1037.3 mb 0.00 in0.0 mm 0.00 in0.0 mm 0.00 in0.0 mm
03:13 AM 34.6°F1.4°C 24.9°F-3.9°C 68% 1.0 mph E1.6 kmh E -- 30.64 in1037.6 mb 0.00 in0.0 mm 0.00 in0.0 mm 0.00 in0.0 mm
03:17 AM 34.6°F1.4°C 24.9°F-3.9°C 68% 1.0 mph E1.6 kmh E -- 30.64 in1037.6 mb 0.00 in0.0 mm 0.00 in0.0 mm 0.00 in0.0 mm
03:22 AM 34.5°F1.4°C 24.9°F-3.9°C 68% 2.0 mph E3.2 kmh E -- 30.63 in1037.3 mb 0.00 in0.0 mm 0.00 in0.0 mm 0.00 in0.0 mm
03:28 AM 34.4°F1.3°C 24.8°F-4.0°C 68% 2.0 mph ENE3.2 kmh ENE -- 30.63 in1037.3 mb 0.00 in0.0 mm 0.00 in0.0 mm 0.00 in0.0 mm
03:32 AM 34.3°F1.3°C 24.8°F-4.0°C 68% 1.0 mph ESE1.6 kmh ESE -- 30.63 in1037.3 mb 0.00 in0.0 mm 0.00 in0.0 mm 0.00 in0.0 mm
03:37 AM 34.1°F1.2°C 24.9°F-3.9°C 69% 2.0 mph SE3.2 kmh SE -- 30.63 in1037.3 mb 0.00 in0.0 mm 0.00 in0.0 mm 0.00 in0.0 mm
03:42 AM 34.0°F1.1°C 24.8°F-4.0°C 69% 1.0 mph E1.6 kmh E -- 30.63 in1037.3 mb 0.00 in0.0 mm 0.00 in0.0 mm 0.00 in0.0 mm
03:48 AM 33.7°F0.9°C 24.4°F-4.2°C 69% 1.0 mph SE1.6 kmh SE -- 30.63 in1037.3 mb 0.00 in0.0 mm 0.00 in0.0 mm 0.00 in0.0 mm
03:53 AM 33.4°F0.8°C 24.2°F-4.3°C 69% 1.0 mph ESE1.6 kmh ESE -- 30.63 in1037.3 mb 0.00 in0.0 mm 0.00 in0.0 mm 0.00 in0.0 mm
03:57 AM 33.3°F0.7°C 24.4°F-4.2°C 70% 1.0 mph ESE1.6 kmh ESE -- 30.63 in1037.3 mb 0.00 in0.0 mm 0.00 in0.0 mm 0.00 in0.0 mm
04:02 AM 33.2°F0.7°C 24.4°F-4.2°C 70% Calm Calm -- 30.63 in1037.3 mb 0.00 in0.0 mm 0.00 in0.0 mm 0.00 in0.0 mm
04:08 AM 33.2°F0.7°C 24.4°F-4.2°C 70% 1.0 mph SE1.6 kmh SE -- 30.63 in1037.3 mb 0.00 in0.0 mm 0.00 in0.0 mm 0.00 in0.0 mm
04:13 AM 33.2°F0.7°C 24.4°F-4.2°C 70% Calm Calm -- 30.62 in1036.9 mb 0.00 in0.0 mm 0.00 in0.0 mm 0.00 in0.0 mm
04:17 AM 33.2°F0.7°C 24.4°F-4.2°C 70% Calm Calm -- 30.63 in1037.3 mb 0.00 in0.0 mm 0.00 in0.0 mm 0.00 in0.0 mm
04:22 AM 33.2°F0.7°C 24.4°F-4.2°C 70% 1.0 mph ESE1.6 kmh ESE -- 30.63 in1037.3 mb 0.00 in0.0 mm 0.00 in0.0 mm 0.00 in0.0 mm
04:28 AM 33.1°F0.6°C 24.2°F-4.3°C 70% Calm Calm -- 30.62 in1036.9 mb 0.00 in0.0 mm 0.00 in0.0 mm 0.00 in0.0 mm
04:33 AM 33.0°F0.6°C 24.2°F-4.3°C 70% 1.0 mph SE1.6 kmh SE -- 30.62 in1036.9 mb 0.00 in0.0 mm 0.00 in0.0 mm 0.00 in0.0 mm
04:37 AM 33.0°F0.6°C 24.6°F-4.1°C 71% Calm Calm -- 30.63 in1037.3 mb 0.00 in0.0 mm 0.00 in0.0 mm 0.00 in0.0 mm
04:43 AM 32.9°F0.5°C 24.4°F-4.2°C 71% Calm Calm -- 30.63 in1037.3 mb 0.00 in0.0 mm 0.00 in0.0 mm 0.00 in0.0 mm
04:47 AM 32.8°F0.4°C 24.2°F-4.3°C 71% 1.0 mph SE1.6 kmh SE -- 30.63 in1037.3 mb 0.00 in0.0 mm 0.00 in0.0 mm 0.00 in0.0 mm
04:52 AM 32.7°F0.4°C 24.2°F-4.3°C 71% 2.0 mph ESE3.2 kmh ESE -- 30.63 in1037.3 mb 0.00 in0.0 mm 0.00 in0.0 mm 0.00 in0.0 mm
04:57 AM 32.7°F0.4°C 24.6°F-4.1°C 72% 1.0 mph SE1.6 kmh SE -- 30.62 in1036.9 mb 0.00 in0.0 mm 0.00 in0.0 mm 0.00 in0.0 mm
05:02 AM 32.7°F0.4°C 24.6°F-4.1°C 72% 2.0 mph ENE3.2 kmh ENE -- 30.62 in1036.9 mb 0.00 in0.0 mm 0.00 in0.0 mm 0.00 in0.0 mm
05:08 AM 32.8°F0.4°C 24.2°F-4.3°C 71% Calm Calm -- 30.62 in1036.9 mb 0.00 in0.0 mm 0.00 in0.0 mm 0.00 in0.0 mm
05:12 AM 32.6°F0.3°C 24.1°F-4.4°C 71% 2.0 mph E3.2 kmh E -- 30.63 in1037.3 mb 0.00 in0.0 mm 0.00 in0.0 mm 0.00 in0.0 mm
05:17 AM 32.6°F0.3°C 24.4°F-4.2°C 72% Calm Calm -- 30.62 in1036.9 mb 0.00 in0.0 mm 0.00 in0.0 mm 0.00 in0.0 mm
05:23 AM 32.6°F0.3°C 24.4°F-4.2°C 72% Calm Calm -- 30.62 in1036.9 mb 0.00 in0.0 mm 0.00 in0.0 mm 0.00 in0.0 mm
05:27 AM 32.5°F0.3°C 24.4°F-4.2°C 72% Calm Calm -- 30.62 in1036.9 mb 0.00 in0.0 mm 0.00 in0.0 mm 0.00 in0.0 mm
05:32 AM 32.3°F0.2°C 24.2°F-4.3°C 72% 1.0 mph SE1.6 kmh SE -- 30.62 in1036.9 mb 0.00 in0.0 mm 0.00 in0.0 mm 0.00 in0.0 mm
05:37 AM 32.1°F0.1°C 24.4°F-4.2°C 73% Calm Calm -- 30.61 in1036.6 mb 0.00 in0.0 mm 0.00 in0.0 mm 0.00 in0.0 mm
05:43 AM 31.9°F-0.1°C 24.0°F-4.4°C 73% 1.0 mph ESE1.6 kmh ESE -- 30.62 in1036.9 mb 0.00 in0.0 mm 0.00 in0.0 mm 0.00 in0.0 mm
05:48 AM 31.8°F-0.1°C 24.0°F-4.4°C 73% 1.0 mph SE1.6 kmh SE -- 30.62 in1036.9 mb 0.00 in0.0 mm 0.00 in0.0 mm 0.00 in0.0 mm
05:52 AM 31.7°F-0.2°C 24.2°F-4.3°C 74% Calm Calm -- 30.62 in1036.9 mb 0.00 in0.0 mm 0.00 in0.0 mm 0.00 in0.0 mm
05:57 AM 31.5°F-0.3°C 24.0°F-4.4°C 74% Calm Calm -- 30.63 in1037.3 mb 0.00 in0.0 mm 0.00 in0.0 mm 0.00 in0.0 mm
06:03 AM 31.2°F-0.4°C 23.9°F-4.5°C 74% Calm Calm -- 30.63 in1037.3 mb 0.00 in0.0 mm 0.00 in0.0 mm 0.00 in0.0 mm
06:07 AM 31.1°F-0.5°C 23.7°F-4.6°C 74% Calm Calm -- 30.63 in1037.3 mb 0.00 in0.0 mm 0.00 in0.0 mm 0.00 in0.0 mm
06:12 AM 31.0°F-0.6°C 23.8°F-4.6°C 75% Calm Calm -- 30.63 in1037.3 mb 0.00 in0.0 mm 0.00 in0.0 mm 0.00 in0.0 mm
06:17 AM 30.7°F-0.7°C 24.0°F-4.4°C 76% Calm Calm -- 30.63 in1037.3 mb 0.00 in0.0 mm 0.00 in0.0 mm 0.00 in0.0 mm
06:22 AM 30.6°F-0.8°C 24.1°F-4.4°C 77% Calm Calm -- 30.64 in1037.6 mb 0.00 in0.0 mm 0.00 in0.0 mm 0.00 in0.0 mm
06:28 AM 30.5°F-0.8°C 24.1°F-4.4°C 77% Calm Calm -- 30.65 in1037.9 mb 0.00 in0.0 mm 0.00 in0.0 mm 0.00 in0.0 mm
06:32 AM 30.4°F-0.9°C 23.9°F-4.5°C 77% Calm Calm -- 30.64 in1037.6 mb 0.00 in0.0 mm 0.00 in0.0 mm 0.00 in0.0 mm
06:37 AM 30.4°F-0.9°C 24.6°F-4.1°C 79% Calm Calm -- 30.64 in1037.6 mb 0.00 in0.0 mm 0.00 in0.0 mm 0.00 in0.0 mm
06:42 AM 30.4°F-0.9°C 24.9°F-3.9°C 80% Calm Calm -- 30.63 in1037.3 mb 0.00 in0.0 mm 0.00 in0.0 mm 0.00 in0.0 mm
06:48 AM 30.6°F-0.8°C 24.7°F-4.1°C 79% Calm Calm -- 30.63 in1037.3 mb 0.00 in0.0 mm 0.00 in0.0 mm 0.00 in0.0 mm
06:53 AM 30.6°F-0.8°C 24.7°F-4.1°C 79% 1.0 mph E1.6 kmh E -- 30.63 in1037.3 mb 0.00 in0.0 mm 0.00 in0.0 mm 0.00 in0.0 mm
06:57 AM 30.7°F-0.7°C 24.9°F-3.9°C 79% Calm Calm -- 30.62 in1036.9 mb 0.00 in0.0 mm 0.00 in0.0 mm 0.00 in0.0 mm
07:02 AM 30.9°F-0.6°C 24.8°F-4.0°C 78% 1.0 mph E1.6 kmh E -- 30.62 in1036.9 mb 0.00 in0.0 mm 0.00 in0.0 mm 0.00 in0.0 mm
07:08 AM 30.9°F-0.6°C 24.8°F-4.0°C 78% Calm Calm -- 30.62 in1036.9 mb 0.00 in0.0 mm 0.00 in0.0 mm 0.00 in0.0 mm
07:13 AM 30.7°F-0.7°C 24.9°F-3.9°C 79% Calm Calm -- 30.62 in1036.9 mb 0.00 in0.0 mm 0.00 in0.0 mm 0.00 in0.0 mm
07:17 AM 30.9°F-0.6°C 25.1°F-3.8°C 79% Calm Calm -- 30.63 in1037.3 mb 0.00 in0.0 mm 0.00 in0.0 mm 0.00 in0.0 mm
07:22 AM 30.9°F-0.6°C 25.1°F-3.8°C 79% Calm Calm -- 30.62 in1036.9 mb 0.00 in0.0 mm 0.00 in0.0 mm 0.00 in0.0 mm
07:28 AM 31.0°F-0.6°C 25.1°F-3.8°C 79% Calm Calm -- 30.62 in1036.9 mb 0.00 in0.0 mm 0.00 in0.0 mm 0.00 in0.0 mm
07:33 AM 31.0°F-0.6°C 25.1°F-3.8°C 79% 2.0 mph E3.2 kmh E -- 30.62 in1036.9 mb 0.00 in0.0 mm 0.00 in0.0 mm 0.00 in0.0 mm
07:37 AM 31.0°F-0.6°C 25.4°F-3.7°C 80% Calm Calm -- 30.62 in1036.9 mb 0.00 in0.0 mm 0.00 in0.0 mm 0.00 in0.0 mm
07:42 AM 31.2°F-0.4°C 25.4°F-3.7°C 79% Calm Calm -- 30.62 in1036.9 mb 0.00 in0.0 mm 0.00 in0.0 mm 0.00 in0.0 mm
07:47 AM 31.1°F-0.5°C 25.3°F-3.7°C 79% Calm Calm -- 30.62 in1036.9 mb 0.00 in0.0 mm 0.00 in0.0 mm 0.00 in0.0 mm
07:53 AM 31.2°F-0.4°C 25.8°F-3.4°C 80% Calm Calm -- 30.63 in1037.3 mb 0.00 in0.0 mm 0.00 in0.0 mm 0.00 in0.0 mm
07:57 AM 31.2°F-0.4°C 25.8°F-3.4°C 80% Calm Calm -- 30.63 in1037.3 mb 0.00 in0.0 mm 0.00 in0.0 mm 0.00 in0.0 mm
08:02 AM 31.3°F-0.4°C 25.8°F-3.4°C 80% Calm Calm -- 30.63 in1037.3 mb 0.00 in0.0 mm 0.00 in0.0 mm 0.00 in0.0 mm
08:08 AM 31.4°F-0.3°C 25.9°F-3.4°C 80% Calm Calm -- 30.63 in1037.3 mb 0.00 in0.0 mm 0.00 in0.0 mm 0.00 in0.0 mm
08:12 AM 31.5°F-0.3°C 25.9°F-3.4°C 80% Calm Calm -- 30.63 in1037.3 mb 0.00 in0.0 mm 0.00 in0.0 mm 0.00 in0.0 mm
08:17 AM 31.7°F-0.2°C 26.1°F-3.3°C 80% Calm Calm -- 30.63 in1037.3 mb 0.00 in0.0 mm 0.00 in0.0 mm 0.00 in0.0 mm
08:23 AM 31.8°F-0.1°C 26.0°F-3.3°C 79% 1.0 mph E1.6 kmh E -- 30.63 in1037.3 mb 0.00 in0.0 mm 0.00 in0.0 mm 0.00 in0.0 mm
08:27 AM 32.1°F0.1°C 26.3°F-3.2°C 79% Calm Calm -- 30.63 in1037.3 mb 0.00 in0.0 mm 0.00 in0.0 mm 0.00 in0.0 mm
08:32 AM 32.2°F0.1°C 26.3°F-3.2°C 79% Calm Calm -- 30.63 in1037.3 mb 0.00 in0.0 mm 0.00 in0.0 mm 0.00 in0.0 mm
08:37 AM 32.4°F0.2°C 26.2°F-3.2°C 78% Calm Calm -- 30.64 in1037.6 mb 0.00 in0.0 mm 0.00 in0.0 mm 0.00 in0.0 mm
08:43 AM 32.6°F0.3°C 26.0°F-3.3°C 77% 1.0 mph SE1.6 kmh SE -- 30.64 in1037.6 mb 0.00 in0.0 mm 0.00 in0.0 mm 0.00 in0.0 mm
08:48 AM 32.8°F0.4°C 25.9°F-3.4°C 76% 1.0 mph SE1.6 kmh SE -- 30.63 in1037.3 mb 0.00 in0.0 mm 0.00 in0.0 mm 0.00 in0.0 mm
08:52 AM 33.1°F0.6°C 26.2°F-3.2°C 76% Calm Calm -- 30.63 in1037.3 mb 0.00 in0.0 mm 0.00 in0.0 mm 0.00 in0.0 mm
08:57 AM 33.3°F0.7°C 26.1°F-3.3°C 75% Calm Calm -- 30.63 in1037.3 mb 0.00 in0.0 mm 0.00 in0.0 mm 0.00 in0.0 mm
09:03 AM 33.6°F0.9°C 26.4°F-3.1°C 75% 1.0 mph SSE1.6 kmh SSE -- 30.64 in1037.6 mb 0.00 in0.0 mm 0.00 in0.0 mm 0.00 in0.0 mm
09:08 AM 33.9°F1.1°C 26.1°F-3.3°C 73% Calm Calm -- 30.64 in1037.6 mb 0.00 in0.0 mm 0.00 in0.0 mm 0.00 in0.0 mm
09:12 AM 34.0°F1.1°C 25.8°F-3.4°C 72% Calm Calm -- 30.64 in1037.6 mb 0.00 in0.0 mm 0.00 in0.0 mm 0.00 in0.0 mm
09:17 AM 34.2°F1.2°C 26.0°F-3.3°C 72% 2.0 mph E3.2 kmh E -- 30.64 in1037.6 mb 0.00 in0.0 mm 0.00 in0.0 mm 0.00 in0.0 mm
09:23 AM 34.3°F1.3°C 26.1°F-3.3°C 72% Calm Calm -- 30.64 in1037.6 mb 0.00 in0.0 mm 0.00 in0.0 mm 0.00 in0.0 mm
09:28 AM 34.5°F1.4°C 26.3°F-3.2°C 72% 1.0 mph SE1.6 kmh SE -- 30.64 in1037.6 mb 0.00 in0.0 mm 0.00 in0.0 mm 0.00 in0.0 mm
09:32 AM 34.7°F1.5°C 26.1°F-3.3°C 71% Calm Calm -- 30.64 in1037.6 mb 0.00 in0.0 mm 0.00 in0.0 mm 0.00 in0.0 mm
09:37 AM 35.1°F1.7°C 26.1°F-3.3°C 70% 2.0 mph E3.2 kmh E -- 30.64 in1037.6 mb 0.00 in0.0 mm 0.00 in0.0 mm 0.00 in0.0 mm
09:42 AM 35.3°F1.8°C 26.0°F-3.3°C 69% 3.0 mph NE4.8 kmh NE -- 30.64 in1037.6 mb 0.00 in0.0 mm 0.00 in0.0 mm 0.00 in0.0 mm
09:47 AM 35.6°F2.0°C 26.0°F-3.3°C 68% 3.0 mph SE4.8 kmh SE -- 30.64 in1037.6 mb 0.00 in0.0 mm 0.00 in0.0 mm 0.00 in0.0 mm
09:52 AM 35.8°F2.1°C 25.8°F-3.4°C 67% 1.0 mph SE1.6 kmh SE -- 30.64 in1037.6 mb 0.00 in0.0 mm 0.00 in0.0 mm 0.00 in0.0 mm
09:57 AM 36.0°F2.2°C 25.9°F-3.4°C 67% 3.0 mph E4.8 kmh E -- 30.64 in1037.6 mb 0.00 in0.0 mm 0.00 in0.0 mm 0.00 in0.0 mm
10:03 AM 36.1°F2.3°C 26.5°F-3.1°C 68% 1.0 mph SE1.6 kmh SE -- 30.65 in1037.9 mb 0.00 in0.0 mm 0.00 in0.0 mm 0.00 in0.0 mm
10:07 AM 36.4°F2.4°C 25.5°F-3.6°C 65% 2.0 mph SE3.2 kmh SE -- 30.65 in1037.9 mb 0.00 in0.0 mm 0.00 in0.0 mm 0.00 in0.0 mm
10:12 AM 36.3°F2.4°C 25.9°F-3.4°C 66% 3.0 mph N4.8 kmh N -- 30.65 in1037.9 mb 0.00 in0.0 mm 0.00 in0.0 mm 0.00 in0.0 mm
10:18 AM 36.1°F2.3°C 26.1°F-3.3°C 67% 2.0 mph E3.2 kmh E -- 30.65 in1037.9 mb 0.00 in0.0 mm 0.00 in0.0 mm 0.00 in0.0 mm
10:22 AM 36.2°F2.3°C 26.5°F-3.1°C 68% 1.0 mph ESE1.6 kmh ESE -- 30.65 in1037.9 mb 0.00 in0.0 mm 0.00 in0.0 mm 0.00 in0.0 mm
10:27 AM 36.7°F2.6°C 27.0°F-2.8°C 68% 2.0 mph ENE3.2 kmh ENE -- 30.65 in1037.9 mb 0.00 in0.0 mm 0.00 in0.0 mm 0.00 in0.0 mm
10:32 AM 36.9°F2.7°C 26.4°F-3.1°C 66% 2.0 mph NE3.2 kmh NE -- 30.64 in1037.6 mb 0.00 in0.0 mm 0.00 in0.0 mm 0.00 in0.0 mm
10:38 AM 36.9°F2.7°C 26.4°F-3.1°C 66% 1.0 mph S1.6 kmh S -- 30.64 in1037.6 mb 0.00 in0.0 mm 0.00 in0.0 mm 0.00 in0.0 mm
10:43 AM 37.3°F2.9°C 26.0°F-3.3°C 64% 1.0 mph SE1.6 kmh SE -- 30.64 in1037.6 mb 0.00 in0.0 mm 0.00 in0.0 mm 0.00 in0.0 mm
10:47 AM 37.5°F3.1°C 26.0°F-3.3°C 63% 1.0 mph SSW1.6 kmh SSW -- 30.63 in1037.3 mb 0.00 in0.0 mm 0.00 in0.0 mm 0.00 in0.0 mm
10:52 AM 37.8°F3.2°C 26.2°F-3.2°C 63% 1.0 mph SE1.6 kmh SE -- 30.63 in1037.3 mb 0.00 in0.0 mm 0.00 in0.0 mm 0.00 in0.0 mm
10:58 AM 38.0°F3.3°C 25.9°F-3.4°C 62% 3.0 mph SE4.8 kmh SE -- 30.63 in1037.3 mb 0.00 in0.0 mm 0.00 in0.0 mm 0.00 in0.0 mm
11:03 AM 38.2°F3.4°C 25.7°F-3.5°C 61% 1.0 mph SE1.6 kmh SE -- 30.63 in1037.3 mb 0.00 in0.0 mm 0.00 in0.0 mm 0.00 in0.0 mm
11:07 AM 38.3°F3.5°C 25.5°F-3.6°C 60% 2.0 mph S3.2 kmh S -- 30.63 in1037.3 mb 0.00 in0.0 mm 0.00 in0.0 mm 0.00 in0.0 mm
11:12 AM 38.6°F3.7°C 25.4°F-3.7°C 59% 2.0 mph S3.2 kmh S -- 30.63 in1037.3 mb 0.00 in0.0 mm 0.00 in0.0 mm 0.00 in0.0 mm
11:17 AM 38.6°F3.7°C 25.4°F-3.7°C 59% 3.0 mph E4.8 kmh E -- 30.63 in1037.3 mb 0.00 in0.0 mm 0.00 in0.0 mm 0.00 in0.0 mm
11:22 AM 39.1°F3.9°C 25.7°F-3.5°C 59% 2.0 mph SE3.2 kmh SE -- 30.62 in1036.9 mb 0.00 in0.0 mm 0.00 in0.0 mm 0.00 in0.0 mm
11:27 AM 39.5°F4.2°C 25.8°F-3.4°C 58% 2.0 mph SE3.2 kmh SE -- 30.62 in1036.9 mb 0.00 in0.0 mm 0.00 in0.0 mm 0.00 in0.0 mm
11:28 AM 39.5°F4.2°C 25.8°F-3.4°C 58% 3.0 mph ENE4.8 kmh ENE -- 30.62 in1036.9 mb 0.00 in0.0 mm 0.00 in0.0 mm 0.00 in0.0 mm
11:32 AM 39.9°F4.4°C 25.3°F-3.7°C 56% 1.0 mph S1.6 kmh S -- 30.61 in1036.6 mb 0.00 in0.0 mm 0.00 in0.0 mm 0.00 in0.0 mm
11:37 AM 39.6°F4.2°C 25.0°F-3.9°C 56% 1.0 mph S1.6 kmh S -- 30.61 in1036.6 mb 0.00 in0.0 mm 0.00 in0.0 mm 0.00 in0.0 mm
11:43 AM 40.0°F4.4°C 26.2°F-3.2°C 58% 2.0 mph SE3.2 kmh SE -- 30.60 in1036.2 mb 0.00 in0.0 mm 0.00 in0.0 mm 0.00 in0.0 mm
11:47 AM 40.9°F4.9°C 26.6°F-3.0°C 57% 1.0 mph SE1.6 kmh SE -- 30.60 in1036.2 mb 0.00 in0.0 mm 0.00 in0.0 mm 0.00 in0.0 mm
11:52 AM 40.7°F4.8°C 25.6°F-3.6°C 55% Calm Calm -- 30.60 in1036.2 mb 0.00 in0.0 mm 0.00 in0.0 mm 0.00 in0.0 mm
11:58 AM 40.5°F4.7°C 25.8°F-3.4°C 56% 2.0 mph NNW3.2 kmh NNW -- 30.60 in1036.2 mb 0.00 in0.0 mm 0.00 in0.0 mm 0.00 in0.0 mm
12:02 PM 40.5°F4.7°C 26.3°F-3.2°C 57% 2.0 mph E3.2 kmh E -- 30.60 in1036.2 mb 0.00 in0.0 mm 0.00 in0.0 mm 0.00 in0.0 mm
12:07 PM 40.5°F4.7°C 25.8°F-3.4°C 56% Calm Calm -- 30.59 in1035.9 mb 0.00 in0.0 mm 0.00 in0.0 mm 0.00 in0.0 mm
12:12 PM 40.5°F4.7°C 25.8°F-3.4°C 56% 2.0 mph ESE3.2 kmh ESE -- 30.59 in1035.9 mb 0.00 in0.0 mm 0.00 in0.0 mm 0.00 in0.0 mm
12:18 PM 40.7°F4.8°C 26.4°F-3.1°C 57% 3.0 mph NNE4.8 kmh NNE -- 30.58 in1035.6 mb 0.00 in0.0 mm 0.00 in0.0 mm 0.00 in0.0 mm
12:23 PM 41.2°F5.1°C 26.5°F-3.1°C 56% 1.0 mph SSW1.6 kmh SSW -- 30.58 in1035.6 mb 0.00 in0.0 mm 0.00 in0.0 mm 0.00 in0.0 mm
12:27 PM 40.8°F4.9°C 27.0°F-2.8°C 58% 2.0 mph ESE3.2 kmh ESE -- 30.58 in1035.6 mb 0.00 in0.0 mm 0.00 in0.0 mm 0.00 in0.0 mm
12:32 PM 40.9°F4.9°C 26.2°F-3.2°C 56% 1.0 mph SE1.6 kmh SE -- 30.58 in1035.6 mb 0.00 in0.0 mm 0.00 in0.0 mm 0.00 in0.0 mm
12:38 PM 41.5°F5.3°C 26.4°F-3.1°C 55% Calm Calm -- 30.58 in1035.6 mb 0.00 in0.0 mm 0.00 in0.0 mm 0.00 in0.0 mm
12:43 PM 41.7°F5.4°C 26.1°F-3.3°C 54% 1.0 mph S1.6 kmh S -- 30.57 in1035.2 mb 0.00 in0.0 mm 0.00 in0.0 mm 0.00 in0.0 mm
12:47 PM 42.1°F5.6°C 26.5°F-3.1°C 54% 1.0 mph N1.6 kmh N -- 30.58 in1035.6 mb 0.00 in0.0 mm 0.00 in0.0 mm 0.00 in0.0 mm
12:52 PM 43.4°F6.3°C 26.2°F-3.2°C 51% 3.0 mph SSE4.8 kmh SSE -- 30.57 in1035.2 mb 0.00 in0.0 mm 0.00 in0.0 mm 0.00 in0.0 mm
12:58 PM 44.5°F6.9°C 26.8°F-2.9°C 50% 4.0 mph SSE6.4 kmh SSE -- 30.57 in1035.2 mb 0.00 in0.0 mm 0.00 in0.0 mm 0.00 in0.0 mm
01:03 PM 44.1°F6.7°C 25.9°F-3.4°C 49% 2.0 mph ESE3.2 kmh ESE -- 30.57 in1035.2 mb 0.00 in0.0 mm 0.00 in0.0 mm 0.00 in0.0 mm
01:07 PM 44.3°F6.8°C 26.6°F-3.0°C 50% 2.0 mph S3.2 kmh S -- 30.56 in1034.9 mb 0.00 in0.0 mm 0.00 in0.0 mm 0.00 in0.0 mm
01:12 PM 43.4°F6.3°C 26.2°F-3.2°C 51% 2.0 mph N3.2 kmh N -- 30.57 in1035.2 mb 0.00 in0.0 mm 0.00 in0.0 mm 0.00 in0.0 mm
01:17 PM 43.1°F6.2°C 27.0°F-2.8°C 53% 3.0 mph NW4.8 kmh NW -- 30.56 in1034.9 mb 0.00 in0.0 mm 0.00 in0.0 mm 0.00 in0.0 mm
01:22 PM 43.1°F6.2°C 26.1°F-3.3°C 51% Calm Calm -- 30.56 in1034.9 mb 0.00 in0.0 mm 0.00 in0.0 mm 0.00 in0.0 mm
01:27 PM 43.2°F6.2°C 27.0°F-2.8°C 53% 1.0 mph SSW1.6 kmh SSW -- 30.56 in1034.9 mb 0.00 in0.0 mm 0.00 in0.0 mm 0.00 in0.0 mm
01:32 PM 43.9°F6.6°C 27.2°F-2.7°C 52% Calm Calm -- 30.55 in1034.5 mb 0.00 in0.0 mm 0.00 in0.0 mm 0.00 in0.0 mm
01:38 PM 45.0°F7.2°C 27.7°F-2.4°C 51% 4.0 mph E6.4 kmh E -- 30.55 in1034.5 mb 0.00 in0.0 mm 0.00 in0.0 mm 0.00 in0.0 mm
01:42 PM 45.2°F7.3°C 26.9°F-2.8°C 49% 3.0 mph E4.8 kmh E -- 30.54 in1034.2 mb 0.00 in0.0 mm 0.00 in0.0 mm 0.00 in0.0 mm
01:47 PM 44.6°F7.0°C 27.4°F-2.6°C 51% 2.0 mph NNE3.2 kmh NNE -- 30.54 in1034.2 mb 0.00 in0.0 mm 0.00 in0.0 mm 0.00 in0.0 mm
01:53 PM 44.7°F7.1°C 26.6°F-3.0°C 49% 1.0 mph S1.6 kmh S -- 30.54 in1034.2 mb 0.00 in0.0 mm 0.00 in0.0 mm 0.00 in0.0 mm
01:57 PM 45.4°F7.4°C 27.1°F-2.7°C 49% 1.0 mph S1.6 kmh S -- 30.54 in1034.2 mb 0.00 in0.0 mm 0.00 in0.0 mm 0.00 in0.0 mm
02:02 PM 46.3°F7.9°C 27.4°F-2.6°C 48% 3.0 mph SSE4.8 kmh SSE -- 30.53 in1033.9 mb 0.00 in0.0 mm 0.00 in0.0 mm 0.00 in0.0 mm
02:07 PM 46.7°F8.2°C 27.9°F-2.3°C 48% 3.0 mph SSE4.8 kmh SSE -- 30.53 in1033.9 mb 0.00 in0.0 mm 0.00 in0.0 mm 0.00 in0.0 mm
02:13 PM 46.3°F7.9°C 27.4°F-2.6°C 48% 2.0 mph S3.2 kmh S -- 30.52 in1033.5 mb 0.00 in0.0 mm 0.00 in0.0 mm 0.00 in0.0 mm
02:18 PM 45.2°F7.3°C 26.9°F-2.8°C 49% 1.0 mph SW1.6 kmh SW -- 30.53 in1033.9 mb 0.00 in0.0 mm 0.00 in0.0 mm 0.00 in0.0 mm
02:22 PM 45.7°F7.6°C 27.9°F-2.3°C 50% 2.0 mph S3.2 kmh S -- 30.53 in1033.9 mb 0.00 in0.0 mm 0.00 in0.0 mm 0.00 in0.0 mm
02:27 PM 46.1°F7.8°C 28.3°F-2.1°C 50% 1.0 mph SSE1.6 kmh SSE -- 30.53 in1033.9 mb 0.00 in0.0 mm 0.00 in0.0 mm 0.00 in0.0 mm
02:33 PM 45.6°F7.6°C 27.4°F-2.6°C 49% Calm Calm -- 30.53 in1033.9 mb 0.00 in0.0 mm 0.00 in0.0 mm 0.00 in0.0 mm
02:38 PM 45.7°F7.6°C 27.4°F-2.6°C 49% Calm Calm -- 30.53 in1033.9 mb 0.00 in0.0 mm 0.00 in0.0 mm 0.00 in0.0 mm
02:42 PM 46.4°F8.0°C 29.1°F-1.6°C 51% 2.0 mph ESE3.2 kmh ESE -- 30.52 in1033.5 mb 0.00 in0.0 mm 0.00 in0.0 mm 0.00 in0.0 mm
02:47 PM 46.5°F8.1°C 28.3°F-2.1°C 49% 2.0 mph SE3.2 kmh SE -- 30.52 in1033.5 mb 0.00 in0.0 mm 0.00 in0.0 mm 0.00 in0.0 mm
02:53 PM 46.7°F8.2°C 27.9°F-2.3°C 48% 2.0 mph S3.2 kmh S -- 30.52 in1033.5 mb 0.00 in0.0 mm 0.00 in0.0 mm 0.00 in0.0 mm
02:58 PM 46.9°F8.3°C 29.1°F-1.6°C 50% 2.0 mph S3.2 kmh S -- 30.53 in1033.9 mb 0.00 in0.0 mm 0.00 in0.0 mm 0.00 in0.0 mm
03:02 PM 47.0°F8.3°C 28.6°F-1.9°C 49% 3.0 mph E4.8 kmh E -- 30.53 in1033.9 mb 0.00 in0.0 mm 0.00 in0.0 mm 0.00 in0.0 mm
03:07 PM 47.0°F8.3°C 28.1°F-2.2°C 48% 2.0 mph NNE3.2 kmh NNE -- 30.53 in1033.9 mb 0.00 in0.0 mm 0.00 in0.0 mm 0.00 in0.0 mm
03:12 PM 46.8°F8.2°C 28.4°F-2.0°C 49% 2.0 mph SE3.2 kmh SE -- 30.52 in1033.5 mb 0.00 in0.0 mm 0.00 in0.0 mm 0.00 in0.0 mm
03:17 PM 46.9°F8.3°C 28.6°F-1.9°C 49% 2.0 mph S3.2 kmh S -- 30.52 in1033.5 mb 0.00 in0.0 mm 0.00 in0.0 mm 0.00 in0.0 mm
03:22 PM 47.1°F8.4°C 28.3°F-2.1°C 48% 2.0 mph S3.2 kmh S -- 30.52 in1033.5 mb 0.00 in0.0 mm 0.00 in0.0 mm 0.00 in0.0 mm
03:27 PM 47.2°F8.4°C 27.7°F-2.4°C 47% 2.0 mph SSE3.2 kmh SSE -- 30.52 in1033.5 mb 0.00 in0.0 mm 0.00 in0.0 mm 0.00 in0.0 mm
03:32 PM 47.2°F8.4°C 27.7°F-2.4°C 47% 1.0 mph SSE1.6 kmh SSE -- 30.52 in1033.5 mb 0.00 in0.0 mm 0.00 in0.0 mm 0.00 in0.0 mm
03:41 PM 47.2°F8.4°C 28.8°F-1.8°C 49% 1.0 mph SSE1.6 kmh SSE -- 30.52 in1033.5 mb 0.00 in0.0 mm 0.00 in0.0 mm 0.00 in0.0 mm
03:42 PM 47.4°F8.6°C 28.6°F-1.9°C 48% 3.0 mph S4.8 kmh S -- 30.52 in1033.5 mb 0.00 in0.0 mm 0.00 in0.0 mm 0.00 in0.0 mm
03:47 PM 47.5°F8.6°C 28.1°F-2.2°C 47% 2.0 mph SSE3.2 kmh SSE -- 30.53 in1033.9 mb 0.00 in0.0 mm 0.00 in0.0 mm 0.00 in0.0 mm
03:52 PM 47.5°F8.6°C 28.1°F-2.2°C 47% 3.0 mph SSW4.8 kmh SSW -- 30.53 in1033.9 mb 0.00 in0.0 mm 0.00 in0.0 mm 0.00 in0.0 mm
03:57 PM 47.2°F8.4°C 27.7°F-2.4°C 47% 2.0 mph S3.2 kmh S -- 30.53 in1033.9 mb 0.00 in0.0 mm 0.00 in0.0 mm 0.00 in0.0 mm
04:03 PM 46.8°F8.2°C 28.4°F-2.0°C 49% 1.0 mph S1.6 kmh S -- 30.52 in1033.5 mb 0.00 in0.0 mm 0.00 in0.0 mm 0.00 in0.0 mm
04:07 PM 46.5°F8.1°C 27.2°F-2.7°C 47% 2.0 mph S3.2 kmh S -- 30.52 in1033.5 mb 0.00 in0.0 mm 0.00 in0.0 mm 0.00 in0.0 mm
04:12 PM 46.3°F7.9°C 27.4°F-2.6°C 48% 1.0 mph SSE1.6 kmh SSE -- 30.52 in1033.5 mb 0.00 in0.0 mm 0.00 in0.0 mm 0.00 in0.0 mm
04:18 PM 45.8°F7.7°C 27.6°F-2.4°C 49% 2.0 mph S3.2 kmh S -- 30.51 in1033.2 mb 0.00 in0.0 mm 0.00 in0.0 mm 0.00 in0.0 mm
04:22 PM 45.6°F7.6°C 27.4°F-2.6°C 49% 2.0 mph S3.2 kmh S -- 30.52 in1033.5 mb 0.00 in0.0 mm 0.00 in0.0 mm 0.00 in0.0 mm
04:27 PM 45.5°F7.5°C 27.8°F-2.3°C 50% 2.0 mph SSE3.2 kmh SSE -- 30.52 in1033.5 mb 0.00 in0.0 mm 0.00 in0.0 mm 0.00 in0.0 mm
04:32 PM 45.3°F7.4°C 27.6°F-2.4°C 50% Calm Calm -- 30.52 in1033.5 mb 0.00 in0.0 mm 0.00 in0.0 mm 0.00 in0.0 mm
04:38 PM 45.1°F7.3°C 27.9°F-2.3°C 51% Calm Calm -- 30.52 in1033.5 mb 0.00 in0.0 mm 0.00 in0.0 mm 0.00 in0.0 mm
04:43 PM 44.9°F7.2°C 27.7°F-2.4°C 51% Calm Calm -- 30.52 in1033.5 mb 0.00 in0.0 mm 0.00 in0.0 mm 0.00 in0.0 mm
04:47 PM 44.6°F7.0°C 27.4°F-2.6°C 51% Calm Calm -- 30.52 in1033.5 mb 0.00 in0.0 mm 0.00 in0.0 mm 0.00 in0.0 mm
04:52 PM 44.3°F6.8°C 27.6°F-2.4°C 52% Calm Calm -- 30.51 in1033.2 mb 0.00 in0.0 mm 0.00 in0.0 mm 0.00 in0.0 mm
04:58 PM 43.8°F6.6°C 27.7°F-2.4°C 53% Calm Calm -- 30.52 in1033.5 mb 0.00 in0.0 mm 0.00 in0.0 mm 0.00 in0.0 mm
05:03 PM 43.5°F6.4°C 27.8°F-2.3°C 54% Calm Calm -- 30.52 in1033.5 mb 0.00 in0.0 mm 0.00 in0.0 mm 0.00 in0.0 mm
05:07 PM 43.0°F6.1°C 27.3°F-2.6°C 54% Calm Calm -- 30.52 in1033.5 mb 0.00 in0.0 mm 0.00 in0.0 mm 0.00 in0.0 mm
05:12 PM 42.6°F5.9°C 27.4°F-2.6°C 55% Calm Calm -- 30.52 in1033.5 mb 0.00 in0.0 mm 0.00 in0.0 mm 0.00 in0.0 mm
05:18 PM 42.3°F5.7°C 27.5°F-2.5°C 56% Calm Calm -- 30.52 in1033.5 mb 0.00 in0.0 mm 0.00 in0.0 mm 0.00 in0.0 mm
05:22 PM 41.9°F5.5°C 27.6°F-2.4°C 57% Calm Calm -- 30.52 in1033.5 mb 0.00 in0.0 mm 0.00 in0.0 mm 0.00 in0.0 mm
05:27 PM 41.7°F5.4°C 27.4°F-2.6°C 57% Calm Calm -- 30.52 in1033.5 mb 0.00 in0.0 mm 0.00 in0.0 mm 0.00 in0.0 mm
05:33 PM 41.3°F5.2°C 27.1°F-2.7°C 57% Calm Calm -- 30.52 in1033.5 mb 0.00 in0.0 mm 0.00 in0.0 mm 0.00 in0.0 mm
05:37 PM 41.2°F5.1°C 27.8°F-2.3°C 59% Calm Calm -- 30.51 in1033.2 mb 0.00 in0.0 mm 0.00 in0.0 mm 0.00 in0.0 mm
05:42 PM 40.8°F4.9°C 27.9°F-2.3°C 60% Calm Calm -- 30.52 in1033.5 mb 0.00 in0.0 mm 0.00 in0.0 mm 0.00 in0.0 mm
05:47 PM 40.7°F4.8°C 27.7°F-2.4°C 60% Calm Calm -- 30.52 in1033.5 mb 0.00 in0.0 mm 0.00 in0.0 mm 0.00 in0.0 mm
05:52 PM 40.6°F4.8°C 27.7°F-2.4°C 60% Calm Calm -- 30.52 in1033.5 mb 0.00 in0.0 mm 0.00 in0.0 mm 0.00 in0.0 mm
05:58 PM 40.5°F4.7°C 27.9°F-2.3°C 61% Calm Calm -- 30.52 in1033.5 mb 0.00 in0.0 mm 0.00 in0.0 mm 0.00 in0.0 mm
06:02 PM 40.1°F4.5°C 27.2°F-2.7°C 60% Calm Calm -- 30.52 in1033.5 mb 0.00 in0.0 mm 0.00 in0.0 mm 0.00 in0.0 mm
06:07 PM 39.8°F4.3°C 27.2°F-2.7°C 61% Calm Calm -- 30.52 in1033.5 mb 0.00 in0.0 mm 0.00 in0.0 mm 0.00 in0.0 mm
06:13 PM 39.6°F4.2°C 27.5°F-2.5°C 62% Calm Calm -- 30.52 in1033.5 mb 0.00 in0.0 mm 0.00 in0.0 mm 0.00 in0.0 mm
06:17 PM 39.4°F4.1°C 27.7°F-2.4°C 63% Calm Calm -- 30.52 in1033.5 mb 0.00 in0.0 mm 0.00 in0.0 mm 0.00 in0.0 mm
06:22 PM 39.2°F4.0°C 27.5°F-2.5°C 63% Calm Calm -- 30.52 in1033.5 mb 0.00 in0.0 mm 0.00 in0.0 mm 0.00 in0.0 mm
06:27 PM 38.9°F3.8°C 27.2°F-2.7°C 63% Calm Calm -- 30.52 in1033.5 mb 0.00 in0.0 mm 0.00 in0.0 mm 0.00 in0.0 mm
06:33 PM 38.7°F3.7°C 27.4°F-2.6°C 64% Calm Calm -- 30.52 in1033.5 mb 0.00 in0.0 mm 0.00 in0.0 mm 0.00 in0.0 mm
06:38 PM 38.4°F3.6°C 27.2°F-2.7°C 64% Calm Calm -- 30.52 in1033.5 mb 0.00 in0.0 mm 0.00 in0.0 mm 0.00 in0.0 mm
06:42 PM 38.2°F3.4°C 27.6°F-2.4°C 66% Calm Calm -- 30.52 in1033.5 mb 0.00 in0.0 mm 0.00 in0.0 mm 0.00 in0.0 mm
06:47 PM 38.2°F3.4°C 28.0°F-2.2°C 67% Calm Calm -- 30.52 in1033.5 mb 0.00 in0.0 mm 0.00 in0.0 mm 0.00 in0.0 mm
06:53 PM 38.0°F3.3°C 27.8°F-2.3°C 67% Calm Calm -- 30.52 in1033.5 mb 0.00 in0.0 mm 0.00 in0.0 mm 0.00 in0.0 mm
06:57 PM 37.9°F3.3°C 27.8°F-2.3°C 67% Calm Calm -- 30.53 in1033.9 mb 0.00 in0.0 mm 0.00 in0.0 mm 0.00 in0.0 mm
07:02 PM 37.7°F3.2°C 27.7°F-2.4°C 67% Calm Calm -- 30.53 in1033.9 mb 0.00 in0.0 mm 0.00 in0.0 mm 0.00 in0.0 mm
07:07 PM 37.4°F3.0°C 28.0°F-2.2°C 69% Calm Calm -- 30.53 in1033.9 mb 0.00 in0.0 mm 0.00 in0.0 mm 0.00 in0.0 mm
07:13 PM 37.1°F2.8°C 27.7°F-2.4°C 69% Calm Calm -- 30.53 in1033.9 mb 0.00 in0.0 mm 0.00 in0.0 mm 0.00 in0.0 mm
07:17 PM 36.9°F2.7°C 27.9°F-2.3°C 70% Calm Calm -- 30.52 in1033.5 mb 0.00 in0.0 mm 0.00 in0.0 mm 0.00 in0.0 mm
07:22 PM 36.7°F2.6°C 27.7°F-2.4°C 70% Calm Calm -- 30.52 in1033.5 mb 0.00 in0.0 mm 0.00 in0.0 mm 0.00 in0.0 mm
07:28 PM 36.7°F2.6°C 27.7°F-2.4°C 70% Calm Calm -- 30.53 in1033.9 mb 0.00 in0.0 mm 0.00 in0.0 mm 0.00 in0.0 mm
07:32 PM 36.5°F2.5°C 27.9°F-2.3°C 71% Calm Calm -- 30.52 in1033.5 mb 0.00 in0.0 mm 0.00 in0.0 mm 0.00 in0.0 mm
07:37 PM 36.3°F2.4°C 27.7°F-2.4°C 71% Calm Calm -- 30.53 in1033.9 mb 0.00 in0.0 mm 0.00 in0.0 mm 0.00 in0.0 mm
07:42 PM 36.1°F2.3°C 27.5°F-2.5°C 71% Calm Calm -- 30.53 in1033.9 mb 0.00 in0.0 mm 0.00 in0.0 mm 0.00 in0.0 mm
07:47 PM 36.2°F2.3°C 27.5°F-2.5°C 71% Calm Calm -- 30.53 in1033.9 mb 0.00 in0.0 mm 0.00 in0.0 mm 0.00 in0.0 mm
07:53 PM 35.9°F2.2°C 27.4°F-2.6°C 71% Calm Calm -- 30.53 in1033.9 mb 0.00 in0.0 mm 0.00 in0.0 mm 0.00 in0.0 mm
07:57 PM 35.8°F2.1°C 27.5°F-2.5°C 72% Calm Calm -- 30.53 in1033.9 mb 0.00 in0.0 mm 0.00 in0.0 mm 0.00 in0.0 mm
08:02 PM 35.8°F2.1°C 27.9°F-2.3°C 73% Calm Calm -- 30.53 in1033.9 mb 0.00 in0.0 mm 0.00 in0.0 mm 0.00 in0.0 mm
08:07 PM 35.6°F2.0°C 27.7°F-2.4°C 73% Calm Calm -- 30.53 in1033.9 mb 0.00 in0.0 mm 0.00 in0.0 mm 0.00 in0.0 mm
08:12 PM 35.5°F1.9°C 27.9°F-2.3°C 74% Calm Calm -- 30.54 in1034.2 mb 0.00 in0.0 mm 0.00 in0.0 mm 0.00 in0.0 mm
08:18 PM 35.2°F1.8°C 27.7°F-2.4°C 74% Calm Calm -- 30.53 in1033.9 mb 0.00 in0.0 mm 0.00 in0.0 mm 0.00 in0.0 mm
08:22 PM 35.0°F1.7°C 27.5°F-2.5°C 74% Calm Calm -- 30.54 in1034.2 mb 0.00 in0.0 mm 0.00 in0.0 mm 0.00 in0.0 mm
08:27 PM 34.8°F1.6°C 27.7°F-2.4°C 75% Calm Calm -- 30.54 in1034.2 mb 0.00 in0.0 mm 0.00 in0.0 mm 0.00 in0.0 mm
08:33 PM 34.6°F1.4°C 27.6°F-2.4°C 76% Calm Calm -- 30.54 in1034.2 mb 0.00 in0.0 mm 0.00 in0.0 mm 0.00 in0.0 mm
08:37 PM 34.5°F1.4°C 27.6°F-2.4°C 76% Calm Calm -- 30.54 in1034.2 mb 0.00 in0.0 mm 0.00 in0.0 mm 0.00 in0.0 mm
08:42 PM 34.3°F1.3°C 27.5°F-2.5°C 76% Calm Calm -- 30.54 in1034.2 mb 0.00 in0.0 mm 0.00 in0.0 mm 0.00 in0.0 mm
08:47 PM 34.2°F1.2°C 27.3°F-2.6°C 76% Calm Calm -- 30.54 in1034.2 mb 0.00 in0.0 mm 0.00 in0.0 mm 0.00 in0.0 mm
08:53 PM 34.0°F1.1°C 27.1°F-2.7°C 76% Calm Calm -- 30.53 in1033.9 mb 0.00 in0.0 mm 0.00 in0.0 mm 0.00 in0.0 mm
08:57 PM 34.0°F1.1°C 27.8°F-2.3°C 78% 1.0 mph ESE1.6 kmh ESE -- 30.54 in1034.2 mb 0.00 in0.0 mm 0.00 in0.0 mm 0.00 in0.0 mm
09:02 PM 33.7°F0.9°C 27.4°F-2.6°C 78% 1.0 mph ESE1.6 kmh ESE -- 30.54 in1034.2 mb 0.00 in0.0 mm 0.00 in0.0 mm 0.00 in0.0 mm
09:08 PM 33.3°F0.7°C 27.1°F-2.7°C 78% Calm Calm -- 30.53 in1033.9 mb 0.00 in0.0 mm 0.00 in0.0 mm 0.00 in0.0 mm
09:13 PM 33.1°F0.6°C 27.2°F-2.7°C 79% Calm Calm -- 30.53 in1033.9 mb 0.00 in0.0 mm 0.00 in0.0 mm 0.00 in0.0 mm
09:17 PM 32.8°F0.4°C 26.5°F-3.1°C 78% Calm Calm -- 30.53 in1033.9 mb 0.00 in0.0 mm 0.00 in0.0 mm 0.00 in0.0 mm
09:22 PM 32.8°F0.4°C 27.2°F-2.7°C 80% Calm Calm -- 30.53 in1033.9 mb 0.00 in0.0 mm 0.00 in0.0 mm 0.00 in0.0 mm
09:27 PM 32.7°F0.4°C 27.5°F-2.5°C 81% Calm Calm -- 30.53 in1033.9 mb 0.00 in0.0 mm 0.00 in0.0 mm 0.00 in0.0 mm
09:33 PM 32.9°F0.5°C 27.6°F-2.4°C 81% Calm Calm -- 30.53 in1033.9 mb 0.00 in0.0 mm 0.00 in0.0 mm 0.00 in0.0 mm
09:37 PM 33.3°F0.7°C 28.0°F-2.2°C 81% Calm Calm -- 30.53 in1033.9 mb 0.00 in0.0 mm 0.00 in0.0 mm 0.00 in0.0 mm
09:42 PM 33.5°F0.8°C 27.9°F-2.3°C 80% Calm Calm -- 30.53 in1033.9 mb 0.00 in0.0 mm 0.00 in0.0 mm 0.00 in0.0 mm
09:52 PM 33.7°F0.9°C 28.0°F-2.2°C 80% Calm Calm -- 30.53 in1033.9 mb 0.00 in0.0 mm 0.00 in0.0 mm 0.00 in0.0 mm
09:57 PM 33.7°F0.9°C 28.0°F-2.2°C 80% Calm Calm -- 30.53 in1033.9 mb 0.00 in0.0 mm 0.00 in0.0 mm 0.00 in0.0 mm
10:02 PM 33.6°F0.9°C 27.7°F-2.4°C 79% Calm Calm -- 30.53 in1033.9 mb 0.00 in0.0 mm 0.00 in0.0 mm 0.00 in0.0 mm
10:07 PM 33.4°F0.8°C 27.9°F-2.3°C 80% Calm Calm -- 30.53 in1033.9 mb 0.00 in0.0 mm 0.00 in0.0 mm 0.00 in0.0 mm
10:12 PM 33.1°F0.6°C 27.2°F-2.7°C 79% Calm Calm -- 30.52 in1033.5 mb 0.00 in0.0 mm 0.00 in0.0 mm 0.00 in0.0 mm
10:17 PM 32.7°F0.4°C 27.2°F-2.7°C 80% Calm Calm -- 30.52 in1033.5 mb 0.00 in0.0 mm 0.00 in0.0 mm 0.00 in0.0 mm
10:23 PM 32.6°F0.3°C 27.3°F-2.6°C 81% Calm Calm -- 30.52 in1033.5 mb 0.00 in0.0 mm 0.00 in0.0 mm 0.00 in0.0 mm
10:28 PM 32.4°F0.2°C 27.1°F-2.7°C 81% Calm Calm -- 30.52 in1033.5 mb 0.00 in0.0 mm 0.00 in0.0 mm 0.00 in0.0 mm
10:32 PM 32.2°F0.1°C 27.2°F-2.7°C 82% Calm Calm -- 30.52 in1033.5 mb 0.00 in0.0 mm 0.00 in0.0 mm 0.00 in0.0 mm
10:37 PM 32.0°F0.0°C 27.1°F-2.7°C 82% Calm Calm -- 30.52 in1033.5 mb 0.00 in0.0 mm 0.00 in0.0 mm 0.00 in0.0 mm
10:43 PM 31.9°F-0.1°C 26.9°F-2.8°C 82% Calm Calm -- 30.52 in1033.5 mb 0.00 in0.0 mm 0.00 in0.0 mm 0.00 in0.0 mm
10:48 PM 31.6°F-0.2°C 26.7°F-2.9°C 82% Calm Calm -- 30.52 in1033.5 mb 0.00 in0.0 mm 0.00 in0.0 mm 0.00 in0.0 mm
10:52 PM 31.6°F-0.2°C 27.0°F-2.8°C 83% Calm Calm -- 30.52 in1033.5 mb 0.00 in0.0 mm 0.00 in0.0 mm 0.00 in0.0 mm
10:57 PM 31.6°F-0.2°C 27.0°F-2.8°C 83% Calm Calm -- 30.52 in1033.5 mb 0.00 in0.0 mm 0.00 in0.0 mm 0.00 in0.0 mm
11:03 PM 31.5°F-0.3°C 26.8°F-2.9°C 83% Calm Calm -- 30.52 in1033.5 mb 0.00 in0.0 mm 0.00 in0.0 mm 0.00 in0.0 mm
11:08 PM 31.3°F-0.4°C 26.7°F-2.9°C 83% Calm Calm -- 30.52 in1033.5 mb 0.00 in0.0 mm 0.00 in0.0 mm 0.00 in0.0 mm
11:12 PM 31.0°F-0.6°C 26.3°F-3.2°C 83% Calm Calm -- 30.52 in1033.5 mb 0.00 in0.0 mm 0.00 in0.0 mm 0.00 in0.0 mm
11:17 PM 31.1°F-0.5°C 26.8°F-2.9°C 84% Calm Calm -- 30.52 in1033.5 mb 0.00 in0.0 mm 0.00 in0.0 mm 0.00 in0.0 mm
11:22 PM 30.9°F-0.6°C 26.6°F-3.0°C 84% Calm Calm -- 30.51 in1033.2 mb 0.00 in0.0 mm 0.00 in0.0 mm 0.00 in0.0 mm
11:28 PM 31.0°F-0.6°C 26.6°F-3.0°C 84% Calm Calm -- 30.51 in1033.2 mb 0.00 in0.0 mm 0.00 in0.0 mm 0.00 in0.0 mm
11:32 PM 31.0°F-0.6°C 26.9°F-2.8°C 85% Calm Calm -- 30.51 in1033.2 mb 0.00 in0.0 mm 0.00 in0.0 mm 0.00 in0.0 mm
11:37 PM 31.2°F-0.4°C 27.2°F-2.7°C 85% Calm Calm -- 30.50 in1032.8 mb 0.00 in0.0 mm 0.00 in0.0 mm 0.00 in0.0 mm
11:43 PM 31.4°F-0.3°C 27.1°F-2.7°C 84% Calm Calm -- 30.50 in1032.8 mb 0.00 in0.0 mm 0.00 in0.0 mm 0.00 in0.0 mm
11:47 PM 31.3°F-0.4°C 26.9°F-2.8°C 84% Calm Calm -- 30.50 in1032.8 mb 0.00 in0.0 mm 0.00 in0.0 mm 0.00 in0.0 mm
11:52 PM 31.3°F-0.4°C 26.9°F-2.8°C 84% Calm Calm -- 30.51 in1033.2 mb 0.00 in0.0 mm 0.00 in0.0 mm 0.00 in0.0 mm
11:57 PM 31.3°F-0.4°C 26.9°F-2.8°C 84% Calm Calm -- 30.50 in1032.8 mb 0.00 in0.0 mm 0.00 in0.0 mm 0.00 in0.0 mm